Time;durP1;ratioP1;P1;durP2;ratioP2;P2;SDS_P1;SDS_P2;PMS_P1;PMS_P2;Temp;Humidity;BMP_temperature;BMP_pressure;BME280_temperature;BME280_humidity;BME280_pressure;Samples;Min_cycle;Max_cycle;Signal;HPM_P1;HPM_P2
2022/11/08 00:03:24;;;;;;;8.73;3.47;;;;;;;9.77;100.00;99986.84;4993153;28;20041;-63
2022/11/08 00:14:01;;;;;;;6.50;3.00;;;;;;;9.71;100.00;99976.44;4994320;28;20440;-65
2022/11/08 00:16:27;;;;;;;8.20;3.55;;;;;;;9.67;100.00;99972.09;4994448;28;20034;-64
2022/11/08 00:18:53;;;;;;;5.95;3.53;;;;;;;9.64;100.00;99968.69;4994160;28;20033;-65
2022/11/08 00:21:18;;;;;;;9.32;4.32;;;;;;;9.60;100.00;99978.53;4994132;28;20390;-66
2022/11/08 00:23:44;;;;;;;8.63;4.28;;;;;;;9.58;100.00;99969.75;4994273;28;20402;-65
2022/11/08 00:26:09;;;;;;;9.70;4.90;;;;;;;9.55;100.00;99969.84;4992660;28;20036;-63
2022/11/08 00:28:34;;;;;;;8.63;4.32;;;;;;;9.50;100.00;99953.16;4993296;28;20026;-64
2022/11/08 00:31:05;;;;;;;7.25;4.03;;;;;;;9.48;100.00;99957.66;4993600;28;20600;-64
2022/11/08 00:33:31;;;;;;;8.88;4.63;;;;;;;9.47;100.00;99947.94;4993250;28;20070;-64
2022/11/08 00:36:00;;;;;;;9.57;5.25;;;;;;;9.44;100.00;99955.97;4993013;28;20034;-64
2022/11/08 00:38:25;;;;;;;11.35;5.50;;;;;;;9.43;100.00;99958.69;4993442;28;20393;-64
2022/11/08 00:40:51;;;;;;;7.97;4.40;;;;;;;9.41;100.00;99955.22;4993765;28;20038;-64
2022/11/08 00:43:16;;;;;;;10.90;5.50;;;;;;;9.39;100.00;99955.25;4994267;28;20462;-64
2022/11/08 00:45:41;;;;;;;9.48;4.97;;;;;;;9.37;100.00;99951.78;4993783;28;20030;-64
2022/11/08 00:48:07;;;;;;;8.50;4.70;;;;;;;9.30;100.00;99948.44;4993814;28;20030;-64
2022/11/08 00:50:33;;;;;;;12.55;4.75;;;;;;;9.24;100.00;99953.91;4993686;28;20049;-63
2022/11/08 00:52:58;;;;;;;7.35;4.35;;;;;;;9.16;100.00;99949.72;4996277;28;20023;-64
2022/11/08 00:55:24;;;;;;;5.63;3.60;;;;;;;8.85;100.00;99901.06;4993686;28;20045;-64
2022/11/08 00:57:49;;;;;;;9.73;3.97;;;;;;;9.05;100.00;99941.19;4993736;28;20026;-64
2022/11/08 01:00:15;;;;;;;6.70;4.25;;;;;;;8.97;100.00;99948.50;4993577;28;20058;-65
2022/11/08 01:02:40;;;;;;;6.07;3.85;;;;;;;8.94;100.00;99944.16;4993389;28;20022;-64
2022/11/08 01:05:06;;;;;;;7.35;4.00;;;;;;;8.92;100.00;99945.09;4993014;28;20379;-64
2022/11/08 01:07:32;;;;;;;8.75;4.68;;;;;;;8.86;100.00;99934.66;4993398;28;20060;-65
2022/11/08 01:09:57;;;;;;;7.85;4.68;;;;;;;8.82;100.00;99935.63;4993411;28;20129;-65
2022/11/08 01:12:23;;;;;;;8.85;4.82;;;;;;;8.81;100.00;99931.25;4993243;28;20117;-65
2022/11/08 01:14:48;;;;;;;8.38;4.63;;;;;;;8.81;100.00;99932.09;4995610;28;20022;-65
2022/11/08 01:17:14;;;;;;;14.48;5.25;;;;;;;8.78;100.00;99926.03;4993233;28;20504;-65
2022/11/08 01:19:39;;;;;;;9.90;4.53;;;;;;;8.75;100.00;99926.97;4993029;28;20088;-65
2022/11/08 01:22:05;;;;;;;9.35;5.20;;;;;;;8.74;100.00;99925.25;4993045;28;20452;-64
2022/11/08 01:24:30;;;;;;;9.43;4.45;;;;;;;8.73;100.00;99930.59;4993216;28;20026;-65
2022/11/08 01:26:55;;;;;;;10.73;5.50;;;;;;;8.70;100.00;99928.88;4993197;28;20428;-65
2022/11/08 01:29:21;;;;;;;8.00;3.90;;;;;;;8.65;100.00;99919.31;4993430;28;20129;-65
2022/11/08 01:31:46;;;;;;;7.05;3.75;;;;;;;8.57;100.00;99916.84;4993139;28;20035;-66
2022/11/08 01:34:12;;;;;;;5.25;3.42;;;;;;;8.54;100.00;99916.06;4992607;28;20100;-66
2022/11/08 01:36:37;;;;;;;5.50;3.15;;;;;;;8.51;100.00;99916.16;4992833;28;20022;-65
2022/11/08 01:39:02;;;;;;;4.50;3.13;;;;;;;8.46;100.00;99910.09;4992725;28;20439;-65
2022/11/08 01:41:28;;;;;;;4.72;2.65;;;;;;;8.39;100.00;99903.19;4992049;28;20033;-66
2022/11/08 01:43:56;;;;;;;4.70;3.00;;;;;;;8.29;100.00;99902.56;4991018;28;20109;-66
2022/11/08 01:46:37;;;;;;;4.80;3.13;;;;;;;8.24;100.00;99906.28;4991695;28;20042;-66
2022/11/08 01:49:05;;;;;;;5.35;2.95;;;;;;;8.21;100.00;99906.28;4991325;28;20132;-67
2022/11/08 01:51:51;;;;;;;5.63;2.95;;;;;;;8.22;100.00;99908.03;4991502;28;20037;-66
2022/11/08 01:54:30;;;;;;;5.53;2.45;;;;;;;8.25;100.00;99894.75;4990851;28;20061;-65
2022/11/08 01:56:58;;;;;;;3.13;2.10;;;;;;;8.28;100.00;99897.31;4991741;28;20138;-66
2022/11/08 01:59:24;;;;;;;3.95;2.33;;;;;;;8.29;100.00;99893.75;4992303;28;20386;-66
2022/11/08 02:01:50;;;;;;;4.03;2.35;;;;;;;8.28;100.00;99898.19;4992455;28;20018;-66
2022/11/08 02:04:16;;;;;;;3.88;2.58;;;;;;;8.27;100.00;99895.59;4992217;28;20717;-66
2022/11/08 02:06:43;;;;;;;5.38;2.60;;;;;;;8.20;100.00;99891.31;4992707;28;20080;-66
2022/11/08 02:09:11;;;;;;;4.95;2.75;;;;;;;8.19;100.00;99881.63;4991896;28;20054;-66
2022/11/08 02:11:38;;;;;;;4.55;2.72;;;;;;;8.15;100.00;99882.59;4992074;28;20513;-66
2022/11/08 02:14:04;;;;;;;3.50;2.33;;;;;;;8.14;100.00;99883.53;4992024;28;20026;-66
2022/11/08 02:16:30;;;;;;;4.85;3.17;;;;;;;8.13;100.00;99881.75;4992163;28;20026;-65
2022/11/08 02:18:55;;;;;;;4.50;2.50;;;;;;;8.07;100.00;99883.66;4991976;28;20038;-65
2022/11/08 02:21:41;;;;;;;4.18;2.50;;;;;;;8.06;100.00;99875.75;4992224;28;20037;-66
2022/11/08 02:24:09;;;;;;;4.63;2.75;;;;;;;8.02;100.00;99879.41;4992016;28;20743;-64
2022/11/08 02:26:36;;;;;;;5.82;3.17;;;;;;;8.01;100.00;99885.59;4992250;28;20493;-64
2022/11/08 02:29:29;;;;;;;4.53;3.00;;;;;;;7.97;100.00;99884.78;4991930;28;20756;-65
2022/11/08 02:31:55;;;;;;;6.20;3.03;;;;;;;7.92;100.00;99889.31;4991794;28;20472;-65
2022/11/08 02:34:25;;;;;;;4.88;2.60;;;;;;;7.87;100.00;99885.91;4991663;28;20113;-64
2022/11/08 02:36:51;;;;;;;3.50;2.30;;;;;;;7.85;100.00;99881.56;4992042;28;20033;-65
2022/11/08 02:39:16;;;;;;;5.18;2.58;;;;;;;7.81;100.00;99880.78;4990243;28;20030;-66
2022/11/08 02:41:41;;;;;;;6.63;2.90;;;;;;;7.76;100.00;99877.34;4992154;28;20331;-65
2022/11/08 02:44:07;;;;;;;4.95;2.60;;;;;;;7.78;100.00;99880.84;4991863;28;20049;-65
2022/11/08 02:46:32;;;;;;;6.30;2.67;;;;;;;7.74;100.00;99879.16;4991632;28;20057;-65
2022/11/08 02:48:58;;;;;;;6.50;3.35;;;;;;;7.70;100.00;99877.50;4999750;28;20108;-65
2022/11/08 02:51:23;;;;;;;7.90;3.30;;;;;;;7.70;100.00;99879.28;4991530;28;20030;-65
2022/11/08 02:53:48;;;;;;;6.68;3.70;;;;;;;7.76;100.00;99877.34;4991854;28;20116;-65
2022/11/08 02:56:14;;;;;;;8.73;4.28;;;;;;;7.87;100.00;99863.88;4994685;28;20466;-66
2022/11/08 02:58:39;;;;;;;7.13;3.38;;;;;;;7.89;100.00;99872.66;4995714;28;20034;-65
2022/11/08 03:01:05;;;;;;;6.75;4.07;;;;;;;7.92;100.00;99868.13;4995633;28;20022;-65
2022/11/08 03:03:30;;;;;;;5.85;3.63;;;;;;;8.00;100.00;99865.31;4994892;28;20390;-67
2022/11/08 03:05:56;;;;;;;6.75;3.95;;;;;;;8.08;100.00;99860.69;4994389;28;20045;-67
2022/11/08 03:08:21;;;;;;;8.45;5.32;;;;;;;8.09;100.00;99866.88;5007986;28;20057;-65
2022/11/08 03:10:47;;;;;;;6.65;4.55;;;;;;;8.11;100.00;99867.69;5012853;28;20029;-65
2022/11/08 03:13:12;;;;;;;7.70;4.80;;;;;;;8.10;100.00;99866.84;5009230;28;20026;-65
2022/11/08 03:15:37;;;;;;;10.93;5.68;;;;;;;8.11;100.00;99872.97;4993128;28;20026;-66
2022/11/08 03:18:03;;;;;;;9.05;4.88;;;;;;;8.15;100.00;99864.06;4993669;28;20149;-65
2022/11/08 03:20:29;;;;;;;8.43;5.65;;;;;;;8.18;100.00;99866.63;4994247;28;20058;-65
2022/11/08 03:22:59;;;;;;;8.63;5.88;;;;;;;8.17;100.00;99872.84;4994325;28;20446;-65
2022/11/08 03:25:25;;;;;;;9.38;5.40;;;;;;;8.12;100.00;99870.31;4995294;28;20034;-65
2022/11/08 03:27:50;;;;;;;8.93;5.43;;;;;;;8.10;100.00;99876.56;4994945;28;20054;-65
2022/11/08 03:30:16;;;;;;;7.65;4.28;;;;;;;8.00;100.00;99867.97;4995080;28;20042;-65
2022/11/08 03:32:43;;;;;;;8.40;4.78;;;;;;;7.79;100.00;99850.81;4995042;28;20018;-64
2022/11/08 03:35:08;;;;;;;7.70;4.57;;;;;;;7.81;100.00;99864.88;4995182;28;20065;-65
2022/11/08 03:37:34;;;;;;;7.85;4.45;;;;;;;7.80;100.00;99863.16;4995382;28;20054;-65
2022/11/08 03:39:59;;;;;;;8.48;4.85;;;;;;;7.77;100.00;99860.59;4997267;28;20030;-64
2022/11/08 03:42:24;;;;;;;7.75;4.25;;;;;;;7.73;100.00;99861.56;4994732;28;20031;-65
2022/11/08 03:44:50;;;;;;;7.15;5.10;;;;;;;7.72;100.00;99861.59;4994829;28;20101;-65
2022/11/08 03:47:15;;;;;;;7.93;4.88;;;;;;;7.66;100.00;99851.16;4994797;28;20030;-64
2022/11/08 03:49:41;;;;;;;8.25;4.55;;;;;;;7.63;100.00;99844.16;4994512;28;20097;-65
2022/11/08 03:52:06;;;;;;;6.60;4.13;;;;;;;7.58;100.00;99856.63;4994715;28;20041;-65
2022/11/08 03:54:31;;;;;;;8.10;4.32;;;;;;;7.46;100.00;99840.16;4994785;28;20030;-66
2022/11/08 03:56:57;;;;;;;12.85;4.68;;;;;;;7.50;100.00;99853.28;4994453;28;20034;-65
2022/11/08 03:59:22;;;;;;;8.25;3.97;;;;;;;7.43;100.00;99840.22;4994653;28;20624;-65
2022/11/08 04:01:47;;;;;;;8.90;4.95;;;;;;;7.44;100.00;99837.56;4994613;28;20026;-65
2022/11/08 04:04:13;;;;;;;8.68;4.80;;;;;;;7.47;100.00;99834.81;4994390;28;20045;-64
2022/11/08 04:06:38;;;;;;;8.02;4.18;;;;;;;7.42;100.00;99826.13;4993768;28;20030;-65
2022/11/08 04:09:04;;;;;;;6.25;4.03;;;;;;;7.39;100.00;99834.13;4994371;28;20137;-65
2022/11/08 04:16:57;;;;;;;14.75;4.45;;;;;;;7.32;100.00;99831.66;4994017;28;20367;-66
2022/11/08 04:22:09;;;;;;;9.77;3.90;;;;;;;7.31;100.00;99832.56;4993131;28;20121;-66
2022/11/08 04:24:34;;;;;;;6.35;3.28;;;;;;;7.28;100.00;99827.34;4993466;28;20038;-65
2022/11/08 04:27:00;;;;;;;9.02;3.67;;;;;;;7.20;100.00;99810.78;4993192;28;20371;-65
2022/11/08 04:29:26;;;;;;;6.85;3.58;;;;;;;7.17;100.00;99819.63;4993317;28;20023;-66
2022/11/08 04:31:51;;;;;;;8.05;4.20;;;;;;;7.17;100.00;99817.00;4993243;28;20049;-65
2022/11/08 04:34:17;;;;;;;6.03;4.15;;;;;;;7.14;100.00;99824.13;4993081;28;20030;-65
2022/11/08 04:36:42;;;;;;;5.45;3.65;;;;;;;7.13;100.00;99820.63;4992763;28;20023;-65
2022/11/08 04:39:07;;;;;;;7.03;3.20;;;;;;;7.10;100.00;99814.53;4993153;28;20022;-65
2022/11/08 04:41:33;;;;;;;4.78;3.20;;;;;;;7.05;100.00;99814.59;4993084;28;20026;-65
2022/11/08 04:43:58;;;;;;;6.45;3.40;;;;;;;7.02;100.00;99817.31;4995585;28;20105;-66
2022/11/08 04:46:26;;;;;;;6.07;3.65;;;;;;;7.00;100.00;99813.84;4995056;28;20014;-65
2022/11/08 04:48:53;;;;;;;6.10;3.75;;;;;;;6.99;100.00;99827.97;4993169;28;20034;-65
2022/11/08 04:51:27;;;;;;;7.43;3.40;;;;;;;7.01;100.00;99834.09;4993314;28;20030;-66
2022/11/08 04:53:55;;;;;;;5.47;3.42;;;;;;;6.95;100.00;99828.06;4993429;28;20038;-65
2022/11/08 04:56:21;;;;;;;5.40;3.00;;;;;;;6.89;100.00;99822.91;4993433;28;20050;-66
2022/11/08 04:58:48;;;;;;;5.32;3.00;;;;;;;6.84;100.00;99822.16;4993591;28;20073;-65
2022/11/08 05:01:19;;;;;;;6.72;3.28;;;;;;;6.82;100.00;99808.94;4995946;28;20456;-65
2022/11/08 05:03:46;;;;;;;6.25;3.20;;;;;;;6.82;100.00;99808.09;4993103;28;20022;-65
2022/11/08 05:06:23;;;;;;;5.07;3.20;;;;;;;6.82;100.00;99798.34;4993564;28;20150;-65
2022/11/08 05:08:49;;;;;;;6.90;3.33;;;;;;;6.83;100.00;99800.13;4993418;28;20402;-65
2022/11/08 05:11:20;;;;;;;8.68;3.75;;;;;;;6.87;100.00;99806.22;4993290;28;20038;-65
2022/11/08 05:13:46;;;;;;;6.65;3.80;;;;;;;6.82;100.00;99787.78;4993191;28;20094;-65
2022/11/08 05:16:20;;;;;;;7.30;3.40;;;;;;;6.89;100.00;99794.69;4992975;28;20473;-65
2022/11/08 05:18:46;;;;;;;8.18;3.38;;;;;;;6.92;100.00;99788.50;4992358;28;20097;-65
2022/11/08 05:23:59;;;;;;;6.10;3.65;;;;;;;6.87;100.00;99785.91;4993398;28;20455;-66
2022/11/08 05:26:25;;;;;;;7.38;4.22;;;;;;;6.83;100.00;99778.97;4991650;28;20125;-65
2022/11/08 05:28:51;;;;;;;17.15;4.72;;;;;;;6.83;100.00;99764.88;4992915;28;20157;-65
2022/11/08 05:31:16;;;;;;;5.85;3.92;;;;;;;6.87;100.00;99775.34;4992551;28;20042;-66
2022/11/08 05:33:42;;;;;;;7.60;4.35;;;;;;;6.91;100.00;99779.69;4992940;28;20650;-65
2022/11/08 05:36:10;;;;;;;6.78;3.90;;;;;;;6.89;100.00;99767.38;4992883;28;20547;-65
2022/11/08 05:38:37;;;;;;;6.30;4.20;;;;;;;6.98;100.00;99777.78;4992988;28;20470;-65
2022/11/08 05:41:09;;;;;;;6.68;4.05;;;;;;;6.98;100.00;99770.72;4995186;28;20022;-65
2022/11/08 05:43:35;;;;;;;8.10;4.45;;;;;;;6.96;100.00;99769.88;4992593;28;20621;-65
2022/11/08 05:46:01;;;;;;;5.25;3.83;;;;;;;6.95;100.00;99776.06;4992748;28;20026;-65
2022/11/08 05:48:26;;;;;;;7.57;4.32;;;;;;;6.92;100.00;99762.06;4992302;28;20050;-65
2022/11/08 05:50:52;;;;;;;7.50;3.88;;;;;;;6.86;100.00;99768.34;4992285;28;20497;-65
2022/11/08 05:53:17;;;;;;;6.03;3.70;;;;;;;6.72;100.00;99742.19;4992381;28;20061;-65
2022/11/08 05:55:43;;;;;;;7.93;4.15;;;;;;;6.78;100.00;99758.81;4992005;28;20053;-65
2022/11/08 05:58:08;;;;;;;5.75;3.97;;;;;;;6.76;100.00;99752.69;4991977;28;20113;-65
2022/11/08 06:00:34;;;;;;;7.53;3.85;;;;;;;6.76;100.00;99756.22;4991890;28;20033;-65
2022/11/08 06:03:04;;;;;;;5.00;3.22;;;;;;;6.75;100.00;99754.47;4991748;28;20381;-65
2022/11/08 06:05:30;;;;;;;5.35;3.30;;;;;;;6.70;100.00;99766.94;4991648;28;20053;-65
2022/11/08 06:07:56;;;;;;;6.45;3.67;;;;;;;6.63;100.00;99766.19;4991556;28;20062;-65
2022/11/08 06:10:22;;;;;;;5.03;3.17;;;;;;;6.60;100.00;99760.09;4991612;28;20030;-65
2022/11/08 06:12:47;;;;;;;5.20;2.95;;;;;;;6.59;100.00;99775.06;4991543;28;20394;-65
2022/11/08 06:15:13;;;;;;;5.63;2.88;;;;;;;6.53;100.00;99769.91;4991544;28;20036;-65
2022/11/08 06:17:38;;;;;;;5.78;3.40;;;;;;;6.52;100.00;99767.31;4991347;28;20026;-65
2022/11/08 06:20:06;;;;;;;5.78;3.40;;;;;;;6.43;100.00;99757.78;4991372;28;20030;-66
2022/11/08 06:22:33;;;;;;;7.28;3.85;;;;;;;6.50;100.00;99777.03;4989697;28;20374;-65
2022/11/08 06:24:59;;;;;;;5.18;3.63;;;;;;;6.49;100.00;99775.31;4988964;28;20498;-65
2022/11/08 06:27:25;;;;;;;6.97;3.85;;;;;;;6.53;100.00;99762.00;4989065;28;20124;-65
2022/11/08 06:29:50;;;;;;;9.13;4.50;;;;;;;6.54;100.00;99765.47;4989712;28;20026;-65
2022/11/08 06:32:16;;;;;;;6.88;4.20;;;;;;;6.56;100.00;99779.53;4991271;28;20041;-66
2022/11/08 06:34:41;;;;;;;5.82;3.53;;;;;;;6.62;100.00;99779.44;4994406;28;20071;-66
2022/11/08 06:37:07;;;;;;;7.82;3.85;;;;;;;6.59;100.00;99763.63;4991519;28;20037;-65
2022/11/08 06:39:32;;;;;;;6.68;4.28;;;;;;;6.71;100.00;99768.66;4991379;28;20034;-65
2022/11/08 06:41:59;;;;;;;6.07;3.90;;;;;;;6.76;100.00;99765.91;4991409;28;20113;-66
2022/11/08 06:44:24;;;;;;;6.15;3.83;;;;;;;6.81;100.00;99754.34;4991574;28;20034;-65
2022/11/08 06:46:50;;;;;;;6.22;4.07;;;;;;;6.88;100.00;99755.06;4991676;28;20034;-65
2022/11/08 06:49:15;;;;;;;4.97;3.92;;;;;;;6.96;100.00;99758.41;4991503;28;20026;-65
2022/11/08 06:51:40;;;;;;;8.57;3.90;;;;;;;7.06;100.00;99770.53;4997470;28;20117;-65
2022/11/08 06:54:06;;;;;;;11.60;4.63;;;;;;;7.16;100.00;99761.50;4991543;28;20028;-66
2022/11/08 06:56:33;;;;;;;8.30;5.03;;;;;;;7.28;100.00;99763.84;4991572;28;20524;-65
2022/11/08 06:58:58;;;;;;;8.38;4.72;;;;;;;7.39;100.00;99756.53;4993581;28;20532;-66
2022/11/08 07:01:24;;;;;;;8.35;5.10;;;;;;;7.48;100.00;99754.53;4990648;28;20242;-65
2022/11/08 07:03:49;;;;;;;12.25;7.72;;;;;;;7.64;100.00;99755.03;4989695;28;20041;-65
2022/11/08 07:06:14;;;;;;;13.90;8.52;;;;;;;7.79;100.00;99757.28;4990363;28;20501;-65
2022/11/08 07:08:40;;;;;;;13.38;5.93;;;;;;;7.90;100.00;99756.09;4986340;28;20046;-66
2022/11/08 07:11:05;;;;;;;13.23;6.88;;;;;;;8.12;100.00;99758.19;4988995;28;20117;-65
2022/11/08 07:13:31;;;;;;;9.43;5.63;;;;;;;8.26;100.00;99762.22;4988000;28;20057;-65
2022/11/08 07:15:58;;;;;;;10.80;6.03;;;;;;;8.52;100.00;99758.84;4985960;28;20026;-65
2022/11/08 07:18:23;;;;;;;8.75;6.32;;;;;;;9.17;100.00;99771.03;4987703;28;20028;-66
2022/11/08 07:20:49;;;;;;;9.88;5.63;;;;;;;9.40;100.00;99781.81;4988392;28;20026;-65
2022/11/08 07:23:14;;;;;;;10.38;6.90;;;;;;;9.30;100.00;99777.69;4990747;28;20053;-65
2022/11/08 07:25:40;;;;;;;9.30;5.32;;;;;;;9.22;100.00;99782.38;4991492;28;20068;-66
2022/11/08 07:28:18;;;;;;;7.32;5.03;;;;;;;9.15;100.00;99783.47;4991285;28;20040;-66
2022/11/08 07:30:46;;;;;;;11.40;5.25;;;;;;;9.09;100.00;99783.66;4991309;28;20565;-66
2022/11/08 07:33:12;;;;;;;9.80;6.30;;;;;;;9.07;100.00;99780.19;4988434;28;20120;-66
2022/11/08 07:35:38;;;;;;;11.45;6.70;;;;;;;9.16;100.00;99787.84;4989831;28;20071;-65
2022/11/08 07:38:04;;;;;;;10.82;5.97;;;;;;;9.19;100.00;99793.09;4990981;28;20034;-66
2022/11/08 07:40:30;;;;;;;34.45;19.35;;;;;;;9.20;100.00;99793.03;4990359;28;20026;-66
2022/11/08 07:42:59;;;;;;;11.85;6.97;;;;;;;9.25;100.00;99790.25;4994422;28;20457;-65
2022/11/08 07:45:26;;;;;;;14.68;8.30;;;;;;;9.33;100.00;99785.56;4994152;28;20022;-65
2022/11/08 07:48:04;;;;;;;17.38;9.15;;;;;;;9.42;100.00;99787.94;4990869;28;20030;-65
2022/11/08 07:50:30;;;;;;;15.75;9.82;;;;;;;9.50;100.00;99785.03;4991743;28;20125;-65
2022/11/08 07:52:57;;;;;;;15.48;9.02;;;;;;;9.62;100.00;99793.47;4994502;28;20117;-65
2022/11/08 07:55:22;;;;;;;29.48;12.48;;;;;;;9.78;100.00;99808.00;4992648;28;20058;-65
2022/11/08 07:57:48;;;;;;;13.20;8.00;;;;;;;9.92;100.00;99808.41;4990248;28;20057;-65
2022/11/08 08:00:14;;;;;;;17.08;10.13;;;;;;;10.00;100.00;99809.00;4993782;28;20026;-65
2022/11/08 08:02:39;;;;;;;18.95;11.10;;;;;;;10.10;100.00;99809.59;4989507;28;20026;-66
2022/11/08 08:05:05;;;;;;;18.63;10.02;;;;;;;10.18;100.00;99803.09;4991548;28;20088;-66
2022/11/08 08:07:33;;;;;;;14.75;9.77;;;;;;;10.34;100.00;99814.09;4994020;28;20026;-66
2022/11/08 08:09:58;;;;;;;13.80;9.63;;;;;;;10.50;100.00;99816.16;4989742;28;20057;-66
2022/11/08 08:12:24;;;;;;;14.50;8.93;;;;;;;10.72;100.00;99812.72;4990071;28;20378;-66
2022/11/08 08:14:49;;;;;;;17.67;9.77;;;;;;;11.00;100.00;99806.34;4986591;28;20030;-66
2022/11/08 08:17:14;;;;;;;18.70;9.60;;;;;;;11.69;100.00;99802.75;4989333;28;20038;-66
2022/11/08 08:19:40;;;;;;;20.30;11.55;;;;;;;14.06;100.00;99795.41;4982392;28;20604;-66
2022/11/08 08:22:05;;;;;;;16.83;10.02;;;;;;;16.98;92.32;99794.94;4986871;28;20026;-66
2022/11/08 08:24:31;;;;;;;15.80;7.60;;;;;;;19.27;70.67;99790.19;4984035;28;20057;-67
2022/11/08 08:26:56;;;;;;;8.27;5.22;;;;;;;19.62;58.91;99796.59;4981988;28;20466;-67
2022/11/08 08:29:22;;;;;;;8.75;4.63;;;;;;;20.01;57.82;99791.00;4981769;28;20049;-67
2022/11/08 08:31:47;;;;;;;7.70;4.13;;;;;;;20.01;54.91;99809.91;4981519;28;20030;-67
2022/11/08 08:34:14;;;;;;;6.88;3.58;;;;;;;19.42;55.85;99810.72;4980768;28;20030;-67
2022/11/08 08:36:40;;;;;;;4.85;2.65;;;;;;;18.76;56.97;99812.72;4981356;28;20156;-67
2022/11/08 08:39:06;;;;;;;6.85;2.70;;;;;;;18.86;57.31;99816.50;4985417;28;20037;-67
2022/11/08 08:41:31;;;;;;;5.43;2.65;;;;;;;19.47;56.28;99824.72;4987069;28;20042;-68
2022/11/08 08:43:57;;;;;;;6.97;2.40;;;;;;;20.83;52.11;99826.97;4984158;28;20026;-67
2022/11/08 08:46:22;;;;;;;5.15;3.13;;;;;;;21.76;48.56;99821.31;4985560;28;20029;-67
2022/11/08 08:48:48;;;;;;;6.32;3.00;;;;;;;22.42;47.31;99817.59;4986986;28;20068;-67
2022/11/08 08:51:13;;;;;;;7.15;2.97;;;;;;;22.79;46.38;99820.78;4984446;28;20038;-68
2022/11/08 08:53:39;;;;;;;5.05;2.97;;;;;;;22.13;46.85;99802.91;4984866;28;20026;-67
2022/11/08 08:56:05;;;;;;;7.15;3.03;;;;;;;21.96;46.78;99839.53;4985551;28;20026;-68
2022/11/08 08:58:31;;;;;;;6.03;2.83;;;;;;;22.13;46.44;99832.72;4984283;28;20640;-68
2022/11/08 09:01:10;;;;;;;6.35;2.55;;;;;;;22.91;45.04;99812.47;4985276;28;20022;-67
2022/11/08 09:03:36;;;;;;;8.10;3.30;;;;;;;23.90;43.60;99837.13;4985389;28;20034;-67
2022/11/08 09:06:02;;;;;;;5.40;2.83;;;;;;;24.07;41.92;99844.69;4983632;28;20022;-68
2022/11/08 09:08:28;;;;;;;3.75;2.22;;;;;;;23.14;43.90;99843.91;4986052;28;20054;-68
2022/11/08 09:10:54;;;;;;;7.15;2.47;;;;;;;23.02;43.84;99838.66;4984417;28;20401;-68
2022/11/08 09:13:20;;;;;;;6.03;2.40;;;;;;;22.79;44.05;99837.06;4985610;28;20035;-67
2022/11/08 09:15:46;;;;;;;5.28;2.03;;;;;;;22.49;45.13;99836.94;4984941;28;20586;-68
2022/11/08 09:18:11;;;;;;;10.85;6.10;;;;;;;22.79;44.83;99832.50;4984878;28;20061;-68
2022/11/08 09:20:37;;;;;;;27.92;12.30;;;;;;;23.01;44.48;99821.53;4985859;28;20122;-68
2022/11/08 09:23:03;;;;;;;17.13;8.68;;;;;;;23.16;44.30;99825.59;4983563;28;20081;-68
2022/11/08 09:25:28;;;;;;;16.40;7.43;;;;;;;23.19;43.41;99809.06;4985588;28;20049;-68
2022/11/08 09:27:54;;;;;;;8.82;4.60;;;;;;;22.90;43.81;99818.88;4985186;28;20038;-68
2022/11/08 09:30:19;;;;;;;17.65;6.07;;;;;;;22.71;44.98;99826.88;4983530;28;20034;-68
2022/11/08 09:32:45;;;;;;;18.92;7.82;;;;;;;22.95;43.96;99816.63;4985570;28;20026;-70
2022/11/08 09:35:10;;;;;;;13.95;6.07;;;;;;;23.20;44.00;99821.63;4982799;28;20557;-68
2022/11/08 09:37:35;;;;;;;10.85;4.60;;;;;;;23.44;44.08;99815.94;4983639;28;20030;-68
2022/11/08 09:40:01;;;;;;;14.15;6.22;;;;;;;23.84;43.03;99814.09;4984897;28;20072;-69
2022/11/08 09:43:01;;;;;;;10.60;4.35;;;;;;;24.09;42.33;99810.03;4983260;28;20640;-68
2022/11/08 09:45:37;;;;;;;6.00;2.67;;;;;;;23.98;43.04;99810.16;4983593;28;20085;-69
2022/11/08 09:48:11;;;;;;;4.82;2.60;;;;;;;24.23;42.99;99796.91;4984754;28;20716;-70
2022/11/08 09:50:41;;;;;;;3.72;2.20;;;;;;;24.00;42.82;99817.16;4982176;28;20018;-69
2022/11/08 09:53:17;;;;;;;5.13;2.60;;;;;;;23.52;42.86;99810.69;4983313;28;20034;-69
2022/11/08 09:56:23;;;;;;;4.65;2.05;;;;;;;23.07;44.88;99810.13;4983843;28;20061;-69
2022/11/08 09:59:07;;;;;;;5.93;2.35;;;;;;;23.14;45.12;99808.63;4968605;28;20046;-69
2022/11/08 10:01:35;;;;;;;4.35;2.13;;;;;;;23.03;45.53;99803.25;4986813;28;20034;-69
2022/11/08 10:04:22;;;;;;;5.93;1.92;;;;;;;23.14;44.69;99805.03;4984348;28;20022;-69
2022/11/08 10:06:47;;;;;;;3.50;1.70;;;;;;;23.14;44.82;99800.47;4985740;28;20042;-69
2022/11/08 10:09:33;;;;;;;5.22;1.80;;;;;;;23.06;45.18;99775.84;4984827;28;20061;-69
2022/11/08 10:12:24;;;;;;;2.55;1.60;;;;;;;23.38;44.11;99798.34;4984800;28;20088;-69
2022/11/08 10:15:20;;;;;;;3.20;1.83;;;;;;;23.47;43.92;99795.81;4986408;28;20058;-69
2022/11/08 10:18:10;;;;;;;4.55;1.58;;;;;;;23.98;44.43;99794.72;4984085;28;20042;-69
2022/11/08 10:21:04;;;;;;;5.88;1.90;;;;;;;24.21;43.27;99798.06;4986398;28;20030;-70
2022/11/08 10:23:49;;;;;;;4.53;1.50;;;;;;;24.03;42.88;99802.44;4985348;28;20548;-70
2022/11/08 10:26:20;;;;;;;2.83;1.38;;;;;;;23.51;43.91;99798.09;4985444;28;20034;-70
2022/11/08 10:28:50;;;;;;;4.07;1.40;;;;;;;23.56;44.02;99792.28;4985869;28;20042;-69
2022/11/08 10:31:18;;;;;;;2.78;1.45;;;;;;;23.59;44.17;99784.69;4983908;28;20065;-71
2022/11/08 10:34:11;;;;;;;7.57;2.00;;;;;;;23.64;44.21;99784.31;4983942;28;20417;-69
2022/11/08 10:36:40;;;;;;;3.40;1.40;;;;;;;23.85;43.44;99779.66;4982295;28;20121;-71
2022/11/08 10:39:08;;;;;;;4.03;1.30;;;;;;;23.83;44.14;99781.63;4984784;28;20042;-71
2022/11/08 10:41:46;;;;;;;3.92;1.30;;;;;;;24.08;42.24;99787.47;4984427;28;20034;-70
2022/11/08 10:44:15;;;;;;;2.60;1.13;;;;;;;24.43;42.00;99781.47;4984395;28;20104;-70
2022/11/08 10:46:48;;;;;;;2.40;1.30;;;;;;;24.47;41.57;99770.16;4986374;28;20030;-70
2022/11/08 10:49:21;;;;;;;2.30;1.40;;;;;;;24.00;42.31;99772.84;4985094;28;20034;-71
2022/11/08 10:51:55;;;;;;;5.28;1.42;;;;;;;24.21;42.31;99781.75;4984927;28;20093;-71
2022/11/08 10:54:39;;;;;;;4.95;1.20;;;;;;;24.77;42.30;99771.91;4987121;28;20038;-71
2022/11/08 10:57:04;;;;;;;4.57;1.38;;;;;;;24.90;41.77;99766.13;4988710;28;20030;-70
2022/11/08 10:59:31;;;;;;;3.42;1.17;;;;;;;24.70;41.31;99762.59;4986008;28;20133;-69
2022/11/08 11:01:57;;;;;;;4.13;2.70;;;;;;;24.57;41.25;99762.00;4982784;28;20374;-70
2022/11/08 11:04:31;;;;;;;1.98;1.58;;;;;;;24.33;42.26;99759.69;4984174;28;20041;-69
2022/11/08 11:07:33;;;;;;;4.10;1.77;;;;;;;24.22;41.61;99757.13;4984953;28;20611;-70
2022/11/08 11:10:35;;;;;;;8.73;1.60;;;;;;;24.16;42.00;99751.41;4984019;28;20058;-69
2022/11/08 11:13:05;;;;;;;3.90;1.35;;;;;;;24.33;42.12;99748.00;4985051;28;20026;-69
2022/11/08 11:15:33;;;;;;;3.22;1.30;;;;;;;24.41;41.85;99753.56;4984468;28;20026;-69
2022/11/08 11:17:58;;;;;;;2.67;1.58;;;;;;;24.31;42.99;99756.28;4989028;28;20034;-69
2022/11/08 11:20:25;;;;;;;7.20;1.70;;;;;;;24.03;42.11;99758.97;4989084;28;20084;-69
2022/11/08 11:22:52;;;;;;;2.95;1.45;;;;;;;24.60;41.22;99753.53;4987910;28;20358;-69
2022/11/08 11:25:22;;;;;;;5.00;1.48;;;;;;;24.96;41.12;99747.34;4991974;28;20045;-69
2022/11/08 11:27:55;;;;;;;5.00;1.30;;;;;;;24.25;40.94;99750.56;4989030;28;20033;-70
2022/11/08 11:30:29;;;;;;;4.65;1.35;;;;;;;23.78;42.03;99745.88;4990403;28;20037;-70
2022/11/08 11:33:11;;;;;;;4.25;1.50;;;;;;;22.81;44.34;99737.44;4988842;28;20026;-70
2022/11/08 11:35:51;;;;;;;3.83;1.50;;;;;;;22.20;46.70;99747.22;4992899;28;20034;-70
2022/11/08 11:38:29;;;;;;;3.65;1.05;;;;;;;21.59;47.18;99739.75;4990638;28;20026;-69
2022/11/08 11:41:03;;;;;;;5.20;2.08;;;;;;;21.30;48.31;99739.38;4987541;28;20492;-69
2022/11/08 11:43:37;;;;;;;3.05;1.25;;;;;;;21.69;48.17;99738.88;4987997;28;20049;-69
2022/11/08 11:46:13;;;;;;;3.75;1.48;;;;;;;22.85;46.22;99726.19;4987150;28;20042;-69
2022/11/08 11:48:57;;;;;;;2.88;1.20;;;;;;;23.35;44.02;99725.31;4986547;28;20030;-69
2022/11/08 11:51:26;;;;;;;2.50;1.10;;;;;;;23.12;44.24;99729.19;4987550;28;20339;-70
2022/11/08 11:53:52;;;;;;;2.80;1.20;;;;;;;22.45;45.94;99717.06;4987152;28;20030;-69
2022/11/08 11:56:26;;;;;;;2.83;1.50;;;;;;;21.97;47.68;99723.91;4990798;28;20519;-69
2022/11/08 11:59:09;;;;;;;5.35;2.25;;;;;;;21.72;49.64;99722.38;4990684;28;20042;-68